sensor_id;sensor_type;location;lat;lon;timestamp;temperature;humidity
21844;DHT22;11084;52.482;9.108;2022-09-03T00:02:41;14.50;74.20
21844;DHT22;11084;52.482;9.108;2022-09-03T00:08:31;14.50;75.50
21844;DHT22;11084;52.482;9.108;2022-09-03T00:11:44;14.50;75.60
21844;DHT22;11084;52.482;9.108;2022-09-03T00:14:26;14.40;75.00
21844;DHT22;11084;52.482;9.108;2022-09-03T00:17:04;14.40;75.50
21844;DHT22;11084;52.482;9.108;2022-09-03T00:19:45;14.40;75.80
21844;DHT22;11084;52.482;9.108;2022-09-03T00:22:25;14.30;75.70
21844;DHT22;11084;52.482;9.108;2022-09-03T00:27:24;14.20;75.80
21844;DHT22;11084;52.482;9.108;2022-09-03T00:30:04;14.20;76.40
21844;DHT22;11084;52.482;9.108;2022-09-03T00:32:40;14.10;76.10
21844;DHT22;11084;52.482;9.108;2022-09-03T00:35:18;14.10;76.50
21844;DHT22;11084;52.482;9.108;2022-09-03T00:37:53;14.00;77.20
21844;DHT22;11084;52.482;9.108;2022-09-03T00:40:31;13.90;76.70
21844;DHT22;11084;52.482;9.108;2022-09-03T00:43:37;13.80;77.10
21844;DHT22;11084;52.482;9.108;2022-09-03T00:49:27;13.70;77.80
21844;DHT22;11084;52.482;9.108;2022-09-03T00:57:46;13.50;78.90
21844;DHT22;11084;52.482;9.108;2022-09-03T01:00:21;13.50;80.60
21844;DHT22;11084;52.482;9.108;2022-09-03T01:06:01;13.30;81.50
21844;DHT22;11084;52.482;9.108;2022-09-03T01:09:11;13.30;81.40
21844;DHT22;11084;52.482;9.108;2022-09-03T01:12:03;13.30;81.50
21844;DHT22;11084;52.482;9.108;2022-09-03T01:14:45;13.10;81.50
21844;DHT22;11084;52.482;9.108;2022-09-03T01:23:42;13.00;85.90
21844;DHT22;11084;52.482;9.108;2022-09-03T01:31:57;13.00;86.40
21844;DHT22;11084;52.482;9.108;2022-09-03T01:34:42;12.90;86.20
21844;DHT22;11084;52.482;9.108;2022-09-03T01:46:42;12.60;89.30
21844;DHT22;11084;52.482;9.108;2022-09-03T01:49:39;12.50;92.00
21844;DHT22;11084;52.482;9.108;2022-09-03T01:52:16;12.50;90.80
21844;DHT22;11084;52.482;9.108;2022-09-03T01:58:43;12.40;92.10
21844;DHT22;11084;52.482;9.108;2022-09-03T02:01:04;12.40;90.90
21844;DHT22;11084;52.482;9.108;2022-09-03T02:03:40;12.40;91.00
21844;DHT22;11084;52.482;9.108;2022-09-03T02:06:09;12.30;92.10
21844;DHT22;11084;52.482;9.108;2022-09-03T02:11:06;12.20;91.50
21844;DHT22;11084;52.482;9.108;2022-09-03T02:13:41;12.20;92.10
21844;DHT22;11084;52.482;9.108;2022-09-03T02:16:14;12.10;91.70
21844;DHT22;11084;52.482;9.108;2022-09-03T02:19:00;12.10;92.00
21844;DHT22;11084;52.482;9.108;2022-09-03T02:21:34;12.10;93.20
21844;DHT22;11084;52.482;9.108;2022-09-03T02:24:03;11.90;92.80
21844;DHT22;11084;52.482;9.108;2022-09-03T02:26:31;11.90;92.60
21844;DHT22;11084;52.482;9.108;2022-09-03T02:28:57;9.20;91.30
21844;DHT22;11084;52.482;9.108;2022-09-03T02:31:24;11.90;93.20
21844;DHT22;11084;52.482;9.108;2022-09-03T02:33:50;11.90;93.40
21844;DHT22;11084;52.482;9.108;2022-09-03T02:36:20;11.80;93.60
21844;DHT22;11084;52.482;9.108;2022-09-03T02:41:18;11.80;93.80
21844;DHT22;11084;52.482;9.108;2022-09-03T02:43:51;11.80;94.60
21844;DHT22;11084;52.482;9.108;2022-09-03T02:46:30;11.80;95.40
21844;DHT22;11084;52.482;9.108;2022-09-03T02:48:59;11.80;95.00
21844;DHT22;11084;52.482;9.108;2022-09-03T02:51:25;11.80;94.90
21844;DHT22;11084;52.482;9.108;2022-09-03T02:53:52;11.80;96.10
21844;DHT22;11084;52.482;9.108;2022-09-03T02:56:18;11.70;95.00
21844;DHT22;11084;52.482;9.108;2022-09-03T02:58:44;11.80;95.30
21844;DHT22;11084;52.482;9.108;2022-09-03T03:01:11;11.70;96.30
21844;DHT22;11084;52.482;9.108;2022-09-03T03:06:05;11.70;95.20
21844;DHT22;11084;52.482;9.108;2022-09-03T03:08:31;11.60;95.90
21844;DHT22;11084;52.482;9.108;2022-09-03T03:15:56;11.50;96.60
21844;DHT22;11084;52.482;9.108;2022-09-03T03:18:24;11.60;96.40
21844;DHT22;11084;52.482;9.108;2022-09-03T03:28:09;11.50;96.50
21844;DHT22;11084;52.482;9.108;2022-09-03T03:30:39;11.50;98.30
21844;DHT22;11084;52.482;9.108;2022-09-03T03:33:08;11.40;97.20
21844;DHT22;11084;52.482;9.108;2022-09-03T03:35:35;11.40;97.40
21844;DHT22;11084;52.482;9.108;2022-09-03T03:38:06;11.40;98.70
21844;DHT22;11084;52.482;9.108;2022-09-03T03:40:33;11.40;98.20
21844;DHT22;11084;52.482;9.108;2022-09-03T03:42:59;11.50;98.40
21844;DHT22;11084;52.482;9.108;2022-09-03T03:45:25;11.50;98.20
21844;DHT22;11084;52.482;9.108;2022-09-03T03:47:56;11.50;98.30
21844;DHT22;11084;52.482;9.108;2022-09-03T03:52:50;11.60;98.40
21844;DHT22;11084;52.482;9.108;2022-09-03T03:55:16;11.60;98.60
21844;DHT22;11084;52.482;9.108;2022-09-03T03:57:42;11.60;98.30
21844;DHT22;11084;52.482;9.108;2022-09-03T04:00:08;11.60;98.50
21844;DHT22;11084;52.482;9.108;2022-09-03T04:03:04;11.60;98.20
21844;DHT22;11084;52.482;9.108;2022-09-03T04:08:00;11.70;98.80
21844;DHT22;11084;52.482;9.108;2022-09-03T04:15:20;11.70;98.40
21844;DHT22;11084;52.482;9.108;2022-09-03T04:22:39;11.60;98.90
21844;DHT22;11084;52.482;9.108;2022-09-03T04:25:05;11.70;98.90
21844;DHT22;11084;52.482;9.108;2022-09-03T04:32:24;11.70;99.20
21844;DHT22;11084;52.482;9.108;2022-09-03T04:35:12;11.60;99.30
21844;DHT22;11084;52.482;9.108;2022-09-03T04:40:05;11.60;99.40
21844;DHT22;11084;52.482;9.108;2022-09-03T04:42:31;11.60;99.70
21844;DHT22;11084;52.482;9.108;2022-09-03T04:44:58;11.60;99.90
21844;DHT22;11084;52.482;9.108;2022-09-03T04:52:20;11.60;99.90
21844;DHT22;11084;52.482;9.108;2022-09-03T05:06:59;11.50;99.90
21844;DHT22;11084;52.482;9.108;2022-09-03T05:09:26;11.60;99.90
21844;DHT22;11084;52.482;9.108;2022-09-03T05:14:18;11.60;99.90
21844;DHT22;11084;52.482;9.108;2022-09-03T05:16:44;11.70;99.90
21844;DHT22;11084;52.482;9.108;2022-09-03T05:26:34;12.20;99.90
21844;DHT22;11084;52.482;9.108;2022-09-03T05:29:03;12.30;99.90
21844;DHT22;11084;52.482;9.108;2022-09-03T05:31:35;12.50;99.90
21844;DHT22;11084;52.482;9.108;2022-09-03T05:34:03;12.80;99.90
21844;DHT22;11084;52.482;9.108;2022-09-03T05:36:35;13.00;99.90
21844;DHT22;11084;52.482;9.108;2022-09-03T05:39:04;13.50;99.90
21844;DHT22;11084;52.482;9.108;2022-09-03T05:43:58;13.90;99.70
21844;DHT22;11084;52.482;9.108;2022-09-03T05:46:29;14.70;98.40
21844;DHT22;11084;52.482;9.108;2022-09-03T05:48:58;15.00;97.60
21844;DHT22;11084;52.482;9.108;2022-09-03T05:51:25;15.30;97.00
21844;DHT22;11084;52.482;9.108;2022-09-03T05:53:51;15.70;96.40
21844;DHT22;11084;52.482;9.108;2022-09-03T05:56:20;15.70;96.70
21844;DHT22;11084;52.482;9.108;2022-09-03T05:58:52;16.40;95.30
21844;DHT22;11084;52.482;9.108;2022-09-03T06:01:24;16.70;94.60
21844;DHT22;11084;52.482;9.108;2022-09-03T06:04:14;16.80;94.70
21844;DHT22;11084;52.482;9.108;2022-09-03T06:06:44;17.30;93.30
21844;DHT22;11084;52.482;9.108;2022-09-03T06:09:15;17.30;93.50
21844;DHT22;11084;52.482;9.108;2022-09-03T06:11:45;17.80;91.50
21844;DHT22;11084;52.482;9.108;2022-09-03T06:14:14;17.40;91.10
21844;DHT22;11084;52.482;9.108;2022-09-03T06:16:45;18.30;90.90
21844;DHT22;11084;52.482;9.108;2022-09-03T06:19:17;18.30;91.00
21844;DHT22;11084;52.482;9.108;2022-09-03T06:21:44;18.60;90.10
21844;DHT22;11084;52.482;9.108;2022-09-03T06:24:17;18.60;90.30
21844;DHT22;11084;52.482;9.108;2022-09-03T06:26:44;18.80;89.00
21844;DHT22;11084;52.482;9.108;2022-09-03T06:29:11;19.10;87.00
21844;DHT22;11084;52.482;9.108;2022-09-03T06:31:38;19.00;85.40
21844;DHT22;11084;52.482;9.108;2022-09-03T06:34:04;19.10;86.90
21844;DHT22;11084;52.482;9.108;2022-09-03T06:36:30;19.40;85.50
21844;DHT22;11084;52.482;9.108;2022-09-03T06:38:57;19.50;86.30
21844;DHT22;11084;52.482;9.108;2022-09-03T06:41:29;19.80;84.10
21844;DHT22;11084;52.482;9.108;2022-09-03T06:44:00;20.00;83.40
21844;DHT22;11084;52.482;9.108;2022-09-03T06:46:33;20.10;82.60
21844;DHT22;11084;52.482;9.108;2022-09-03T06:49:00;20.10;83.00
21844;DHT22;11084;52.482;9.108;2022-09-03T06:51:28;20.40;80.50
21844;DHT22;11084;52.482;9.108;2022-09-03T06:54:06;20.40;80.90
21844;DHT22;11084;52.482;9.108;2022-09-03T06:56:34;20.40;80.60
21844;DHT22;11084;52.482;9.108;2022-09-03T06:59:06;20.40;81.10
21844;DHT22;11084;52.482;9.108;2022-09-03T07:01:34;20.50;80.70
21844;DHT22;11084;52.482;9.108;2022-09-03T07:04:03;20.60;81.40
21844;DHT22;11084;52.482;9.108;2022-09-03T07:06:37;20.70;80.60
21844;DHT22;11084;52.482;9.108;2022-09-03T07:09:10;21.10;78.60
21844;DHT22;11084;52.482;9.108;2022-09-03T07:11:37;21.00;77.60
21844;DHT22;11084;52.482;9.108;2022-09-03T07:14:11;21.00;78.30
21844;DHT22;11084;52.482;9.108;2022-09-03T07:16:38;21.00;77.50
21844;DHT22;11084;52.482;9.108;2022-09-03T07:19:06;21.10;78.40
21844;DHT22;11084;52.482;9.108;2022-09-03T07:21:35;21.40;76.40
21844;DHT22;11084;52.482;9.108;2022-09-03T07:24:01;21.60;74.80
21844;DHT22;11084;52.482;9.108;2022-09-03T07:26:32;21.70;76.50
21844;DHT22;11084;52.482;9.108;2022-09-03T07:29:03;21.70;73.60
21844;DHT22;11084;52.482;9.108;2022-09-03T07:31:39;21.70;74.30
21844;DHT22;11084;52.482;9.108;2022-09-03T07:34:08;21.70;73.60
21844;DHT22;11084;52.482;9.108;2022-09-03T07:36:38;21.80;73.70
21844;DHT22;11084;52.482;9.108;2022-09-03T07:39:09;22.20;73.40
21844;DHT22;11084;52.482;9.108;2022-09-03T07:41:36;22.20;73.90
21844;DHT22;11084;52.482;9.108;2022-09-03T07:44:03;22.40;71.20
21844;DHT22;11084;52.482;9.108;2022-09-03T07:46:34;22.60;71.60
21844;DHT22;11084;52.482;9.108;2022-09-03T07:49:03;22.60;72.00
21844;DHT22;11084;52.482;9.108;2022-09-03T07:51:35;23.00;70.10
21844;DHT22;11084;52.482;9.108;2022-09-03T07:54:05;23.10;70.90
21844;DHT22;11084;52.482;9.108;2022-09-03T07:56:34;23.30;68.80
21844;DHT22;11084;52.482;9.108;2022-09-03T07:59:03;23.30;69.70
21844;DHT22;11084;52.482;9.108;2022-09-03T08:01:31;23.50;68.70
21844;DHT22;11084;52.482;9.108;2022-09-03T08:03:59;23.50;69.20
21844;DHT22;11084;52.482;9.108;2022-09-03T08:06:27;23.50;68.00
21844;DHT22;11084;52.482;9.108;2022-09-03T08:09:00;23.50;68.60
21844;DHT22;11084;52.482;9.108;2022-09-03T08:11:29;23.40;67.10
21844;DHT22;11084;52.482;9.108;2022-09-03T08:13:58;23.50;68.40
21844;DHT22;11084;52.482;9.108;2022-09-03T08:16:42;23.70;65.50
21844;DHT22;11084;52.482;9.108;2022-09-03T08:19:10;23.70;66.70
21844;DHT22;11084;52.482;9.108;2022-09-03T08:21:39;23.70;67.30
21844;DHT22;11084;52.482;9.108;2022-09-03T08:24:10;23.70;65.20
21844;DHT22;11084;52.482;9.108;2022-09-03T08:26:39;23.70;65.70
21844;DHT22;11084;52.482;9.108;2022-09-03T08:29:09;23.90;65.20
21844;DHT22;11084;52.482;9.108;2022-09-03T08:31:35;23.90;65.90
21844;DHT22;11084;52.482;9.108;2022-09-03T08:34:05;23.90;64.30
21844;DHT22;11084;52.482;9.108;2022-09-03T08:36:37;23.90;65.70
21844;DHT22;11084;52.482;9.108;2022-09-03T08:39:06;24.10;64.50
21844;DHT22;11084;52.482;9.108;2022-09-03T08:44:24;23.90;63.80
21844;DHT22;11084;52.482;9.108;2022-09-03T08:47:53;23.90;63.10
21844;DHT22;11084;52.482;9.108;2022-09-03T08:52:45;24.00;62.90
21844;DHT22;11084;52.482;9.108;2022-09-03T08:56:11;23.80;63.70
21844;DHT22;11084;52.482;9.108;2022-09-03T08:58:26;24.20;63.20
21844;DHT22;11084;52.482;9.108;2022-09-03T09:04:16;24.40;62.20
21844;DHT22;11084;52.482;9.108;2022-09-03T09:07:16;24.30;60.40
21844;DHT22;11084;52.482;9.108;2022-09-03T09:16:15;24.30;60.70
21844;DHT22;11084;52.482;9.108;2022-09-03T09:21:57;24.50;60.80
21844;DHT22;11084;52.482;9.108;2022-09-03T09:24:34;24.60;60.10
21844;DHT22;11084;52.482;9.108;2022-09-03T09:27:04;24.50;59.90
21844;DHT22;11084;52.482;9.108;2022-09-03T09:29:34;24.50;60.20
21844;DHT22;11084;52.482;9.108;2022-09-03T09:32:02;24.70;59.20
21844;DHT22;11084;52.482;9.108;2022-09-03T09:34:34;24.70;59.70
21844;DHT22;11084;52.482;9.108;2022-09-03T09:37:03;24.80;58.70
21844;DHT22;11084;52.482;9.108;2022-09-03T09:39:31;24.80;59.10
21844;DHT22;11084;52.482;9.108;2022-09-03T09:42:08;24.70;58.20
21844;DHT22;11084;52.482;9.108;2022-09-03T09:44:37;24.90;58.20
21844;DHT22;11084;52.482;9.108;2022-09-03T09:47:23;24.90;58.70
21844;DHT22;11084;52.482;9.108;2022-09-03T09:49:54;25.00;57.20
21844;DHT22;11084;52.482;9.108;2022-09-03T09:52:27;25.00;57.30
21844;DHT22;11084;52.482;9.108;2022-09-03T09:55:16;25.10;57.10
21844;DHT22;11084;52.482;9.108;2022-09-03T09:57:44;25.10;56.50
21844;DHT22;11084;52.482;9.108;2022-09-03T10:00:13;25.00;56.80
21844;DHT22;11084;52.482;9.108;2022-09-03T10:02:52;25.00;55.90
21844;DHT22;11084;52.482;9.108;2022-09-03T10:05:26;25.10;56.30
21844;DHT22;11084;52.482;9.108;2022-09-03T10:07:57;25.10;56.20
21844;DHT22;11084;52.482;9.108;2022-09-03T10:10:25;25.30;56.90
21844;DHT22;11084;52.482;9.108;2022-09-03T10:13:16;25.30;55.90
21844;DHT22;11084;52.482;9.108;2022-09-03T10:16:30;25.40;55.90
21844;DHT22;11084;52.482;9.108;2022-09-03T10:24:49;25.70;54.30
21844;DHT22;11084;52.482;9.108;2022-09-03T10:27:19;25.50;53.90
21844;DHT22;11084;52.482;9.108;2022-09-03T10:29:46;25.60;54.50
21844;DHT22;11084;52.482;9.108;2022-09-03T10:32:38;25.60;54.10
21844;DHT22;11084;52.482;9.108;2022-09-03T10:35:52;25.70;54.10
21844;DHT22;11084;52.482;9.108;2022-09-03T10:38:32;25.90;53.40
21844;DHT22;11084;52.482;9.108;2022-09-03T10:47:20;26.10;53.20
21844;DHT22;11084;52.482;9.108;2022-09-03T10:50:21;26.10;52.60
21844;DHT22;11084;52.482;9.108;2022-09-03T10:56:14;26.10;52.40
21844;DHT22;11084;52.482;9.108;2022-09-03T10:59:05;26.10;52.20
21844;DHT22;11084;52.482;9.108;2022-09-03T11:05:00;26.30;51.90
21844;DHT22;11084;52.482;9.108;2022-09-03T11:10:45;26.40;52.00
21844;DHT22;11084;52.482;9.108;2022-09-03T11:16:22;26.50;51.40
21844;DHT22;11084;52.482;9.108;2022-09-03T11:19:09;26.60;52.00
21844;DHT22;11084;52.482;9.108;2022-09-03T11:21:38;26.50;50.70
21844;DHT22;11084;52.482;9.108;2022-09-03T11:26:56;26.50;51.50
21844;DHT22;11084;52.482;9.108;2022-09-03T11:32:50;26.50;50.90
21844;DHT22;11084;52.482;9.108;2022-09-03T11:35:27;26.70;50.60
21844;DHT22;11084;52.482;9.108;2022-09-03T11:38:04;26.70;51.10
21844;DHT22;11084;52.482;9.108;2022-09-03T11:43:25;26.90;51.00
21844;DHT22;11084;52.482;9.108;2022-09-03T11:48:45;26.90;50.50
21844;DHT22;11084;52.482;9.108;2022-09-03T11:56:46;27.20;50.40
21844;DHT22;11084;52.482;9.108;2022-09-03T11:59:21;27.30;49.70
21844;DHT22;11084;52.482;9.108;2022-09-03T12:01:57;27.30;49.10
21844;DHT22;11084;52.482;9.108;2022-09-03T12:04:34;27.50;49.70
21844;DHT22;11084;52.482;9.108;2022-09-03T12:07:57;27.40;49.70
21844;DHT22;11084;52.482;9.108;2022-09-03T12:18:54;27.30;49.80
21844;DHT22;11084;52.482;9.108;2022-09-03T12:23:51;27.30;49.50
21844;DHT22;11084;52.482;9.108;2022-09-03T12:26:23;27.40;49.40
21844;DHT22;11084;52.482;9.108;2022-09-03T12:28:52;27.40;49.70
21844;DHT22;11084;52.482;9.108;2022-09-03T12:33:58;27.60;49.20
21844;DHT22;11084;52.482;9.108;2022-09-03T12:39:16;27.50;48.40
21844;DHT22;11084;52.482;9.108;2022-09-03T12:47:09;27.40;48.60
21844;DHT22;11084;52.482;9.108;2022-09-03T12:49:44;27.30;47.90
21844;DHT22;11084;52.482;9.108;2022-09-03T12:52:25;27.30;48.00
21844;DHT22;11084;52.482;9.108;2022-09-03T13:00:21;27.60;48.30
21844;DHT22;11084;52.482;9.108;2022-09-03T13:06:10;27.60;48.20
21844;DHT22;11084;52.482;9.108;2022-09-03T13:08:48;27.70;48.30
21844;DHT22;11084;52.482;9.108;2022-09-03T13:11:21;27.60;47.90
21844;DHT22;11084;52.482;9.108;2022-09-03T13:14:02;27.60;48.20
21844;DHT22;11084;52.482;9.108;2022-09-03T13:16:59;27.40;47.70
21844;DHT22;11084;52.482;9.108;2022-09-03T13:28:52;27.30;47.50
21844;DHT22;11084;52.482;9.108;2022-09-03T13:31:43;27.30;47.50
21844;DHT22;11084;52.482;9.108;2022-09-03T13:39:58;27.20;47.00
21844;DHT22;11084;52.482;9.108;2022-09-03T13:42:50;27.00;47.50
21844;DHT22;11084;52.482;9.108;2022-09-03T13:45:35;26.90;47.20
21844;DHT22;11084;52.482;9.108;2022-09-03T13:51:26;26.80;47.50
21844;DHT22;11084;52.482;9.108;2022-09-03T13:54:28;26.80;47.30
21844;DHT22;11084;52.482;9.108;2022-09-03T14:00:06;26.80;47.50
21844;DHT22;11084;52.482;9.108;2022-09-03T14:02:45;26.80;47.00
21844;DHT22;11084;52.482;9.108;2022-09-03T14:19:43;26.50;47.50
21844;DHT22;11084;52.482;9.108;2022-09-03T14:22:17;26.40;47.60
21844;DHT22;11084;52.482;9.108;2022-09-03T14:27:28;26.50;47.70
21844;DHT22;11084;52.482;9.108;2022-09-03T14:30:37;26.50;47.10
21844;DHT22;11084;52.482;9.108;2022-09-03T14:33:42;26.30;47.00
21844;DHT22;11084;52.482;9.108;2022-09-03T14:39:55;25.90;47.20
21844;DHT22;11084;52.482;9.108;2022-09-03T14:54:41;25.60;47.40
21844;DHT22;11084;52.482;9.108;2022-09-03T15:03:26;25.50;47.80
21844;DHT22;11084;52.482;9.108;2022-09-03T15:08:49;25.30;47.90
21844;DHT22;11084;52.482;9.108;2022-09-03T15:11:46;25.20;47.70
21844;DHT22;11084;52.482;9.108;2022-09-03T15:14:29;25.20;48.40
21844;DHT22;11084;52.482;9.108;2022-09-03T15:20:09;25.20;48.40
21844;DHT22;11084;52.482;9.108;2022-09-03T15:26:17;25.10;48.20
21844;DHT22;11084;52.482;9.108;2022-09-03T15:28:59;25.00;48.00
21844;DHT22;11084;52.482;9.108;2022-09-03T15:31:46;25.10;48.10
21844;DHT22;11084;52.482;9.108;2022-09-03T15:37:21;24.80;48.10
21844;DHT22;11084;52.482;9.108;2022-09-03T15:40:07;24.60;47.90
21844;DHT22;11084;52.482;9.108;2022-09-03T15:42:37;24.50;47.90
21844;DHT22;11084;52.482;9.108;2022-09-03T15:45:28;24.50;48.40
21844;DHT22;11084;52.482;9.108;2022-09-03T15:54:09;24.30;48.90
21844;DHT22;11084;52.482;9.108;2022-09-03T16:00:21;24.20;48.80
21844;DHT22;11084;52.482;9.108;2022-09-03T16:03:06;24.10;49.10
21844;DHT22;11084;52.482;9.108;2022-09-03T16:05:56;24.10;49.10
21844;DHT22;11084;52.482;9.108;2022-09-03T16:08:53;24.00;49.20
21844;DHT22;11084;52.482;9.108;2022-09-03T16:11:36;24.00;49.40
21844;DHT22;11084;52.482;9.108;2022-09-03T16:14:09;24.00;49.40
21844;DHT22;11084;52.482;9.108;2022-09-03T16:22:27;23.90;49.80
21844;DHT22;11084;52.482;9.108;2022-09-03T16:25:07;23.80;49.90
21844;DHT22;11084;52.482;9.108;2022-09-03T16:27:54;23.80;49.70
21844;DHT22;11084;52.482;9.108;2022-09-03T16:36:26;23.70;49.70
21844;DHT22;11084;52.482;9.108;2022-09-03T16:56:47;23.40;50.00
21844;DHT22;11084;52.482;9.108;2022-09-03T17:08:30;23.10;50.30
21844;DHT22;11084;52.482;9.108;2022-09-03T17:15:04;23.00;50.60
21844;DHT22;11084;52.482;9.108;2022-09-03T17:20:25;22.80;50.70
21844;DHT22;11084;52.482;9.108;2022-09-03T17:27:00;22.60;50.60
21844;DHT22;11084;52.482;9.108;2022-09-03T17:35:21;22.50;50.70
21844;DHT22;11084;52.482;9.108;2022-09-03T17:50:07;22.10;50.60
21844;DHT22;11084;52.482;9.108;2022-09-03T17:58:34;21.60;50.80
21844;DHT22;11084;52.482;9.108;2022-09-03T18:01:09;21.90;51.10
21844;DHT22;11084;52.482;9.108;2022-09-03T18:03:56;21.70;51.10
21844;DHT22;11084;52.482;9.108;2022-09-03T18:19:59;20.90;53.00
21844;DHT22;11084;52.482;9.108;2022-09-03T18:23:11;21.10;53.20
21844;DHT22;11084;52.482;9.108;2022-09-03T18:26:19;21.30;53.60
21844;DHT22;11084;52.482;9.108;2022-09-03T18:29:15;20.90;53.90
21844;DHT22;11084;52.482;9.108;2022-09-03T18:32:12;20.80;55.00
21844;DHT22;11084;52.482;9.108;2022-09-03T18:34:57;20.70;54.80
21844;DHT22;11084;52.482;9.108;2022-09-03T18:40:38;20.50;56.30
21844;DHT22;11084;52.482;9.108;2022-09-03T18:46:53;20.30;56.20
21844;DHT22;11084;52.482;9.108;2022-09-03T18:53:13;20.10;56.80
21844;DHT22;11084;52.482;9.108;2022-09-03T19:00:02;19.90;56.40
21844;DHT22;11084;52.482;9.108;2022-09-03T19:15:48;19.50;56.90
21844;DHT22;11084;52.482;9.108;2022-09-03T19:19:02;19.40;57.40
21844;DHT22;11084;52.482;9.108;2022-09-03T19:22:10;19.30;57.20
21844;DHT22;11084;52.482;9.108;2022-09-03T19:25:08;19.30;57.10
21844;DHT22;11084;52.482;9.108;2022-09-03T19:37:23;19.10;57.50
21844;DHT22;11084;52.482;9.108;2022-09-03T19:46:50;18.90;57.20
21844;DHT22;11084;52.482;9.108;2022-09-03T19:50:10;18.90;57.30
21844;DHT22;11084;52.482;9.108;2022-09-03T19:53:09;18.90;57.30
21844;DHT22;11084;52.482;9.108;2022-09-03T19:56:06;18.90;57.30
21844;DHT22;11084;52.482;9.108;2022-09-03T19:59:04;18.90;57.50
21844;DHT22;11084;52.482;9.108;2022-09-03T20:01:51;18.80;57.40
21844;DHT22;11084;52.482;9.108;2022-09-03T20:04:50;18.80;57.60
21844;DHT22;11084;52.482;9.108;2022-09-03T20:07:41;18.70;58.00
21844;DHT22;11084;52.482;9.108;2022-09-03T20:10:26;18.60;58.20
21844;DHT22;11084;52.482;9.108;2022-09-03T20:13:08;18.70;58.00
21844;DHT22;11084;52.482;9.108;2022-09-03T20:30:06;18.30;58.80
21844;DHT22;11084;52.482;9.108;2022-09-03T20:41:36;18.00;58.90
21844;DHT22;11084;52.482;9.108;2022-09-03T20:47:45;17.90;59.70
21844;DHT22;11084;52.482;9.108;2022-09-03T20:50:47;17.80;59.60
21844;DHT22;11084;52.482;9.108;2022-09-03T20:53:40;17.80;60.50
21844;DHT22;11084;52.482;9.108;2022-09-03T20:56:32;17.80;59.70
21844;DHT22;11084;52.482;9.108;2022-09-03T20:59:25;17.70;60.00
21844;DHT22;11084;52.482;9.108;2022-09-03T21:11:04;17.50;61.00
21844;DHT22;11084;52.482;9.108;2022-09-03T21:13:46;17.50;61.70
21844;DHT22;11084;52.482;9.108;2022-09-03T21:16:41;17.30;61.20
21844;DHT22;11084;52.482;9.108;2022-09-03T21:24:53;17.20;62.30
21844;DHT22;11084;52.482;9.108;2022-09-03T21:27:38;17.10;62.70
21844;DHT22;11084;52.482;9.108;2022-09-03T21:30:08;17.10;63.10
21844;DHT22;11084;52.482;9.108;2022-09-03T21:35:32;16.90;65.10
21844;DHT22;11084;52.482;9.108;2022-09-03T21:38:11;16.90;65.10
21844;DHT22;11084;52.482;9.108;2022-09-03T21:46:30;16.70;64.90
21844;DHT22;11084;52.482;9.108;2022-09-03T21:49:05;16.70;65.60
21844;DHT22;11084;52.482;9.108;2022-09-03T21:54:30;16.60;66.00
21844;DHT22;11084;52.482;9.108;2022-09-03T21:57:19;16.50;66.20
21844;DHT22;11084;52.482;9.108;2022-09-03T22:00:16;16.50;67.70
21844;DHT22;11084;52.482;9.108;2022-09-03T22:02:44;16.50;68.40
21844;DHT22;11084;52.482;9.108;2022-09-03T22:05:13;16.40;67.70
21844;DHT22;11084;52.482;9.108;2022-09-03T22:10:33;16.40;69.60
21844;DHT22;11084;52.482;9.108;2022-09-03T22:13:14;16.30;68.20
21844;DHT22;11084;52.482;9.108;2022-09-03T22:15:43;16.40;69.00
21844;DHT22;11084;52.482;9.108;2022-09-03T22:18:27;16.40;69.80
21844;DHT22;11084;52.482;9.108;2022-09-03T22:21:18;16.20;69.60
21844;DHT22;11084;52.482;9.108;2022-09-03T22:24:01;16.20;70.40
21844;DHT22;11084;52.482;9.108;2022-09-03T22:30:16;16.10;70.60
21844;DHT22;11084;52.482;9.108;2022-09-03T22:42:10;16.00;71.20
21844;DHT22;11084;52.482;9.108;2022-09-03T22:50:40;15.80;70.50
21844;DHT22;11084;52.482;9.108;2022-09-03T22:59:10;15.70;71.50
21844;DHT22;11084;52.482;9.108;2022-09-03T23:08:08;15.60;70.80
21844;DHT22;11084;52.482;9.108;2022-09-03T23:10:22;15.50;71.30
21844;DHT22;11084;52.482;9.108;2022-09-03T23:14:00;15.50;71.00
21844;DHT22;11084;52.482;9.108;2022-09-03T23:16:19;15.60;71.90
21844;DHT22;11084;52.482;9.108;2022-09-03T23:21:30;15.50;71.10
21844;DHT22;11084;52.482;9.108;2022-09-03T23:24:13;15.40;72.90
21844;DHT22;11084;52.482;9.108;2022-09-03T23:26:46;15.40;72.30
21844;DHT22;11084;52.482;9.108;2022-09-03T23:29:36;15.40;71.90
21844;DHT22;11084;52.482;9.108;2022-09-03T23:32:06;15.30;72.50
21844;DHT22;11084;52.482;9.108;2022-09-03T23:34:34;15.30;72.20
21844;DHT22;11084;52.482;9.108;2022-09-03T23:43:50;15.20;72.60
21844;DHT22;11084;52.482;9.108;2022-09-03T23:46:33;15.10;73.30
21844;DHT22;11084;52.482;9.108;2022-09-03T23:55:17;14.90;73.20
